DW0805 Ramloese DK current weather conditions

sailwx.info

Wind from 308 at 4 knots gusting 10

Air temperature 4.4° C
Dewpoint -37.1° C

Last reported at 2016-Feb-10 11:45 UTC.
Time now 2016-Feb-10 12:48 UTC

Location: N 56°01' E 012°05'.
View on Google Maps.

See reports from other nearby stations

  
Tides and Currents Weather Stations Pressure Air Temp Water Temp Dewpoint Dewpoint Depression Visibility Wind Speed Wind Dir Waves Ship Positions
date/time (UTC)wind fromknots sea level pressurealtimeterstation pressurevisibilityair tempwater tempwave heightnotes
2016-Feb-10 11:45 308 4 gusting 10 4.4
2016-Feb-10 11:35 289 5 gusting 8 4.4
2016-Feb-10 11:25 335 3 gusting 8 4.4
2016-Feb-10 11:15 288 4 gusting 8 4.4
2016-Feb-10 11:05 286 4 gusting 8 4.4
2016-Feb-10 10:55 270 5 gusting 10 4.4
2016-Feb-10 10:45 281 6 gusting 11 4.4
2016-Feb-10 10:35 314 6 gusting 11 4.4
2016-Feb-10 10:25 279 7 gusting 10 4.4
2016-Feb-10 10:15 293 6 gusting 10 4.4
2016-Feb-10 10:05 335 7 gusting 13 4.4
2016-Feb-10 09:55 312 6 gusting 10 4.4
2016-Feb-10 09:45 275 6 gusting 11 4.4
2016-Feb-10 09:35 291 6 gusting 12 3.9
2016-Feb-10 09:25 325 6 gusting 11 3.9
2016-Feb-10 09:15 310 6 gusting 10 3.9
2016-Feb-10 09:05 326 4 gusting 10 3.9
2016-Feb-10 08:55 311 5 gusting 10 3.3
2016-Feb-10 08:45 291 5 gusting 11 3.3
2016-Feb-10 08:35 282 7 gusting 13 3.3
2016-Feb-10 08:25 291 6 gusting 10 3.3
2016-Feb-10 08:15 293 6 gusting 11 3.3
2016-Feb-10 08:05 276 6 gusting 11 3.3
2016-Feb-10 07:55 295 7 gusting 13 3.3
2016-Feb-10 07:45 296 6 gusting 11 2.8
2016-Feb-10 07:35 284 6 gusting 10 2.8
2016-Feb-10 07:25 309 8 gusting 13 2.8
2016-Feb-10 07:15 327 8 gusting 17 2.8
2016-Feb-10 07:05 312 7 gusting 13 2.8
2016-Feb-10 06:55 317 10 gusting 15 2.8
2016-Feb-10 06:45 307 7 gusting 13 2.8
2016-Feb-10 06:35 308 6 gusting 13 2.2
2016-Feb-10 06:25 323 9 gusting 14 2.2
2016-Feb-10 06:15 334 6 gusting 13 1.7
2016-Feb-10 06:05 333 6 gusting 14 1.7
2016-Feb-10 05:55 342 8 gusting 15 1.7
2016-Feb-10 05:45 341 8 gusting 14 1.1
2016-Feb-10 05:35 337 6 gusting 13 1.1
2016-Feb-10 05:25 335 8 gusting 13 1.1
2016-Feb-10 05:15 330 6 gusting 13 0.6
2016-Feb-10 05:05 346 6 gusting 13 0.6
2016-Feb-10 04:55 343 7 gusting 13 0.6
2016-Feb-10 04:45 338 7 gusting 13 0.6
2016-Feb-10 04:35 350 10 gusting 13 0.6
2016-Feb-10 04:25 350 7 gusting 13 0.6
2016-Feb-10 04:15 003 7 gusting 14 0.6
2016-Feb-10 04:05 350 15 gusting 19 0.6
2016-Feb-10 03:55 008 8 gusting 15 0.6
2016-Feb-10 03:45 010 8 gusting 13 0.6
2016-Feb-10 03:35 003 9 gusting 15 0.6
2016-Feb-10 03:25 014 6 gusting 13 0.6
2016-Feb-10 03:15 014 10 gusting 17 1.1
2016-Feb-10 03:05 007 10 gusting 13 1.1
2016-Feb-10 02:55 004 8 gusting 14 1.1
2016-Feb-10 02:45 011 9 gusting 17 1.1
2016-Feb-10 02:35 015 7 gusting 14 1.1
2016-Feb-10 02:25 025 6 gusting 13 1.7
2016-Feb-10 02:15 016 6 gusting 12 1.7
2016-Feb-10 02:05 025 10 gusting 14 1.7
2016-Feb-10 01:55 014 6 gusting 12 2.8
2016-Feb-10 01:45 026 6 gusting 17 2.8
2016-Feb-10 01:35 031 5 gusting 11 3.3
2016-Feb-10 01:25 042 3 gusting 10 3.3
2016-Feb-10 01:15 029 4 gusting 10 3.3
2016-Feb-10 01:05 017 4 gusting 10 3.3
2016-Feb-10 00:55 041 4 gusting 7 3.3
2016-Feb-10 00:25 043 3 gusting 10 3.3
2016-Feb-10 00:15 055 4 gusting 7 3.3
2016-Feb-10 00:05 044 2 gusting 6 3.3
2016-Feb-09 23:55 057 1 gusting 6 3.3
2016-Feb-09 23:45 056 2 gusting 6 3.3
2016-Feb-09 23:35 056 2 gusting 6 3.3
2016-Feb-09 23:25 059 2 gusting 4 3.3
2016-Feb-09 23:15 061 2 gusting 7 3.3
2016-Feb-09 23:05 067 4 gusting 7 3.3
2016-Feb-09 22:55 063 4 gusting 6 3.3
2016-Feb-09 22:45 052 4 gusting 6 3.3
2016-Feb-09 22:35 063 3 gusting 10 3.9
2016-Feb-09 22:25 069 6 gusting 10 3.9
2016-Feb-09 22:15 066 6 gusting 8 3.9
2016-Feb-09 22:05 069 5 gusting 8 3.3
2016-Feb-09 21:55 073 4 gusting 6 3.3
2016-Feb-09 21:45 062 5 gusting 7 3.3
2016-Feb-09 21:35 075 4 gusting 7 3.3
2016-Feb-09 21:25 079 4 gusting 6 3.3
2016-Feb-09 21:15 085 5 gusting 6 3.3
2016-Feb-09 21:05 084 4 gusting 6 3.9
2016-Feb-09 20:55 093 4 gusting 7 3.9
2016-Feb-09 20:35 101 5 gusting 7 3.9
2016-Feb-09 19:55 123 3 gusting 7 3.9
2016-Feb-09 19:45 131 5 gusting 7 3.9
2016-Feb-09 19:35 130 6 gusting 10 3.9
2016-Feb-09 19:25 145 4 gusting 7 3.9
2016-Feb-09 19:15 153 4 gusting 8 3.9
2016-Feb-09 19:05 139 3 gusting 6 3.9
2016-Feb-09 18:55 148 4 gusting 6 3.9
2016-Feb-09 18:45 170 2 gusting 5 3.3
2016-Feb-09 18:35 172 2 gusting 5 3.3
2016-Feb-09 18:25 175 2 gusting 6 3.3
2016-Feb-09 18:15 175 4 gusting 8 3.3
2016-Feb-09 17:55 176 4 gusting 11 3.9
2016-Feb-09 16:55 180 5 gusting 10 4.4
2016-Feb-09 16:35 192 6 gusting 12 5.0
2016-Feb-09 16:25 204 8 gusting 13 5.0
2016-Feb-09 16:15 197 10 gusting 15 5.0
2016-Feb-09 16:05 211 7 gusting 12 5.0
2016-Feb-09 15:55 207 8 gusting 17 5.0
2016-Feb-09 15:45 212 12 gusting 18 5.0
2016-Feb-09 15:35 224 12 gusting 18 5.0
2016-Feb-09 15:25 286 11 gusting 18 5.0
2016-Feb-09 15:15 225 13 gusting 19 5.6
2016-Feb-09 15:05 220 13 gusting 17 5.6
2016-Feb-09 14:55 219 14 gusting 19 5.6
2016-Feb-09 14:45 236 17 gusting 21 5.6
2016-Feb-09 14:35 232 15 gusting 21 5.6
2016-Feb-09 14:25 289 14 gusting 19 5.6
2016-Feb-09 14:15 244 13 gusting 20 5.6
2016-Feb-09 14:05 231 15 gusting 19 5.6
2016-Feb-09 13:45 288 13 gusting 19 6.1
2016-Feb-09 13:35 248 11 gusting 19 6.1
2016-Feb-09 13:05 259 10 gusting 19 5.6
2016-Feb-09 12:55 335 13 gusting 21 5.6
2016-Feb-09 12:45 291 12 gusting 18 5.6
2016-Feb-09 12:35 232 13 gusting 18 5.6
2016-Feb-09 12:25 240 14 gusting 21 5.6
2016-Feb-09 12:15 335 12 gusting 17 5.6
2016-Feb-09 12:05 288 12 gusting 17 6.1
2016-Feb-09 11:55 258 12 gusting 18 5.6
2016-Feb-09 11:45 311 11 gusting 15 5.6
2016-Feb-09 11:35 258 12 gusting 17 5.6
2016-Feb-09 11:25 249 12 gusting 17 5.6
2016-Feb-09 11:15 301 13 gusting 20 5.6
2016-Feb-09 11:05 244 12 gusting 19 5.6
2016-Feb-09 10:55 240 13 gusting 19 5.6
2016-Feb-09 10:45 235 12 gusting 18 5.6
2016-Feb-09 10:35 300 11 gusting 18 5.6
2016-Feb-09 10:25 235 12 gusting 19 5.6
2016-Feb-09 10:15 274 12 gusting 18 5.6
2016-Feb-09 10:05 240 13 gusting 19 5.6
2016-Feb-09 09:55 226 13 gusting 19 5.6
2016-Feb-09 09:45 248 13 gusting 18 5.6
2016-Feb-09 09:35 291 12 gusting 17 5.6
2016-Feb-09 09:25 248 11 gusting 17 5.6
2016-Feb-09 09:15 247 13 gusting 19 5.6
2016-Feb-09 09:05 261 12 gusting 19 5.6
2016-Feb-09 08:55 255 11 gusting 18 5.6
2016-Feb-09 08:45 261 13 gusting 19 5.6
2016-Feb-09 08:35 303 11 gusting 17 5.6
2016-Feb-09 08:25 246 11 gusting 18 5.6
2016-Feb-09 08:15 243 13 gusting 18 5.6
2016-Feb-09 08:05 275 8 gusting 13 5.6
2016-Feb-09 07:55 298 9 gusting 14 5.0
2016-Feb-09 07:45 245 7 gusting 13 5.0
2016-Feb-09 07:35 241 7 gusting 12 5.0
2016-Feb-09 07:25 260 7 gusting 13 5.0
2016-Feb-09 07:15 301 6 gusting 10 5.0
2016-Feb-09 07:05 243 8 gusting 13 5.0
2016-Feb-09 06:55 246 10 gusting 13 5.0
2016-Feb-09 06:45 239 7 gusting 13 5.0
2016-Feb-09 06:35 237 6 gusting 14 5.0
2016-Feb-09 06:25 266 7 gusting 14 5.0
2016-Feb-09 06:15 247 8 gusting 14 5.0
2016-Feb-09 06:05 247 10 gusting 14 5.0
2016-Feb-09 05:55 242 10 gusting 17 5.0
2016-Feb-09 05:45 237 11 gusting 15 5.0
2016-Feb-09 05:35 246 11 gusting 18 5.0
2016-Feb-09 05:25 242 12 gusting 18 5.6
2016-Feb-09 05:15 235 12 gusting 18 5.6
2016-Feb-09 05:05 226 12 gusting 17 5.0
2016-Feb-09 04:55 229 12 gusting 19 5.0
2016-Feb-09 04:45 233 10 gusting 18 5.0
2016-Feb-09 04:35 232 13 gusting 18 5.6
2016-Feb-09 04:25 234 12 gusting 17 5.6
2016-Feb-09 04:15 235 12 gusting 17 5.6
2016-Feb-09 04:05 239 10 gusting 17 5.6
2016-Feb-09 03:55 241 11 gusting 15 5.0
2016-Feb-09 03:45 238 10 gusting 17 5.0
2016-Feb-09 03:35 243 12 gusting 19 5.6
2016-Feb-09 03:25 237 12 gusting 20 5.6
2016-Feb-09 03:15 236 12 gusting 20 5.6
2016-Feb-09 03:05 223 11 gusting 17 5.6
2016-Feb-09 02:55 236 13 gusting 19 5.6
2016-Feb-09 02:45 230 15 gusting 22 5.6
2016-Feb-09 02:35 228 13 gusting 19 5.6
2016-Feb-09 02:25 227 14 gusting 19 5.6
2016-Feb-09 02:15 230 13 gusting 22 5.6
2016-Feb-09 02:05 230 14 gusting 21 5.6
2016-Feb-09 01:55 224 18 gusting 22 5.6
2016-Feb-09 01:45 229 14 gusting 19 5.6
2016-Feb-09 01:35 222 14 gusting 22 5.0
2016-Feb-09 01:25 226 13 gusting 22 5.0
2016-Feb-09 01:15 217 20 gusting 26 5.0
2016-Feb-09 01:05 228 19 gusting 24 5.0
2016-Feb-09 00:55 219 19 gusting 25 5.6
2016-Feb-09 00:45 221 18 gusting 26 5.6
2016-Feb-09 00:35 224 21 gusting 27 5.6
2016-Feb-09 00:25 214 19 gusting 27 5.6
2016-Feb-09 00:15 206 20 gusting 25 5.0
2016-Feb-09 00:05 204 19 gusting 26 5.0
2016-Feb-08 23:55 216 16 gusting 26 5.0
2016-Feb-08 23:45 221 19 gusting 27 5.6
2016-Feb-08 23:35 210 16 gusting 24 5.0
2016-Feb-08 23:25 213 19 gusting 27 5.6
2016-Feb-08 23:15 213 21 gusting 27 5.6
2016-Feb-08 23:05 211 14 gusting 24 5.6
2016-Feb-08 22:55 198 14 gusting 26 5.6
2016-Feb-08 22:45 210 12 gusting 19 5.6
2016-Feb-08 22:35 202 12 gusting 19 5.6
2016-Feb-08 22:25 207 11 gusting 18 5.0
2016-Feb-08 22:15 193 11 gusting 17 5.0
2016-Feb-08 22:05 202 10 gusting 17 5.0
2016-Feb-08 21:55 195 10 gusting 17 5.0
2016-Feb-08 21:45 197 8 gusting 17 5.0
2016-Feb-08 21:35 192 10 gusting 15 5.0
2016-Feb-08 21:25 195 8 gusting 17 5.0
2016-Feb-08 21:15 202 10 gusting 18 5.0
2016-Feb-08 21:05 202 10 gusting 17 5.0
2016-Feb-08 20:55 190 11 gusting 15 5.0
2016-Feb-08 20:45 189 8 gusting 13 5.0
2016-Feb-08 20:35 198 8 gusting 13 5.0
2016-Feb-08 20:25 191 8 gusting 14 5.0
2016-Feb-08 20:15 197 8 gusting 14 5.0
2016-Feb-08 20:05 202 10 gusting 17 5.0
2016-Feb-08 19:55 190 10 gusting 17 5.0
2016-Feb-08 19:45 187 12 gusting 15 5.0
2016-Feb-08 19:35 189 12 gusting 17 5.0
2016-Feb-08 19:25 195 8 gusting 17 5.0
2016-Feb-08 19:15 212 13 gusting 22 5.0
2016-Feb-08 19:05 213 17 gusting 20 5.6
2016-Feb-08 18:55 212 12 gusting 19 5.0
2016-Feb-08 18:45 201 11 gusting 17 5.0
2016-Feb-08 18:35 199 10 gusting 17 5.6
2016-Feb-08 18:25 209 13 gusting 19 5.6
2016-Feb-08 18:15 212 14 gusting 21 5.6
2016-Feb-08 18:05 218 17 gusting 22 5.6
2016-Feb-08 17:55 213 14 gusting 19 5.6
2016-Feb-08 17:45 218 13 gusting 19 5.6
2016-Feb-08 17:35 217 13 gusting 17 5.0
2016-Feb-08 17:25 222 13 gusting 17 5.0
2016-Feb-08 17:15 221 12 gusting 17 5.6
2016-Feb-08 17:05 236 12 gusting 18 5.6
2016-Feb-08 16:55 226 14 gusting 26 6.1
2016-Feb-08 16:45 214 14 gusting 22 6.1
2016-Feb-08 16:35 202 6 gusting 12 5.6
2016-Feb-08 16:25 207 8 gusting 13 5.6
2016-Feb-08 16:15 197 9 gusting 15 5.6
2016-Feb-08 16:05 215 11 gusting 13 5.6
2016-Feb-08 15:55 235 6 gusting 7 5.0
2016-Feb-08 15:45 238 5 gusting 10 5.0
2016-Feb-08 15:35 241 6 gusting 11 5.0
2016-Feb-08 15:25 288 8 gusting 13 5.0
2016-Feb-08 15:15 254 9 gusting 15 5.6
2016-Feb-08 15:05 335 11 gusting 20 6.1
2016-Feb-08 14:55 230 15 gusting 22 7.2
2016-Feb-08 14:45 230 17 gusting 22 7.2
2016-Feb-08 14:35 335 13 gusting 25 7.2
2016-Feb-08 14:25 213 18 gusting 22 7.2
2016-Feb-08 14:15 211 17 gusting 25 7.2
2016-Feb-08 14:05 213 18 gusting 22 7.2
2016-Feb-08 13:55 211 19 gusting 26 7.2
2016-Feb-08 13:45 228 19 gusting 27 7.2
2016-Feb-08 13:35 209 19 gusting 25 6.7
2016-Feb-08 13:25 335 17 gusting 22 6.7
2016-Feb-08 13:15 281 17 gusting 25 6.7
2016-Feb-08 13:05 280 13 gusting 21 6.1
2016-Feb-08 12:55 235 11 gusting 18 6.1
2016-Feb-08 12:45 269 10 gusting 19 5.6
2016-Feb-08 12:35 277 18 gusting 22 6.1
2016-Feb-08 12:25 258 13 gusting 24 6.1
2016-Feb-08 12:15 215 12 gusting 20 6.1
2016-Feb-08 12:05 201 13 gusting 24 6.1